»·PEaware :: N1MR CYAV-KJDN

N1MR :: CYAV-KJDN

FLIGHT INFORMATION

Flight Status: Arrived
Operator: Privately registered:
United States
More flights under this callsign
Pilot: Gavin B. (14546)
Aircraft: PIPER PA-30 TWIN COMANCHE
(PA30)
More flights by this aircraft type
Origin: CYAV St Andrews
Canada
Destination: KJDN Jordan
United States
More flights between these airports :: More routes between these airports
Route: DCT
File this flight plan on PilotEdge
Remarks:
Altitude:
(Current/Filed)
16,000ft
Speed:
(Current/Filed)
150kts
Departed: 04-Jul-17 08:53 AM
Arrived: 04-Jul-17 11:47 AM
Distance/Time
Traveled:
425nm/2:54
Distance/Time
To Go:
Arrived

Flight Plot

Page will automatically refresh every two minutes.

Flight plan parsing failed; only flown route is shown


Map Options




Map Legend


Flown Route
Filed Route
Departure Airport
Arrival Airport
Navaid (VOR, NDB)
Fix

Horizontal Profiles

Position Reports

Time Latitude Longitude Heading Altitude Ground
Speed
04-Jul-17 08:51 50.055948 -97.041440 0 760ft 0kts
04-Jul-17 08:52 50.055948 -97.041441 359 760ft 0kts
04-Jul-17 08:53 50.055948 -97.041440 0 760ft 0kts
04-Jul-17 08:54 50.055578 -97.041328 91 760ft 11kts
04-Jul-17 08:55 50.053822 -97.038670 18 760ft 13kts
04-Jul-17 08:56 50.082171 -97.043312 316 1465ft 150kts
04-Jul-17 08:57 50.078746 -97.103798 221 2314ft 165kts
04-Jul-17 08:58 50.044458 -97.151243 221 3115ft 164kts
04-Jul-17 08:59 50.020032 -97.209999 244 3908ft 162kts
04-Jul-17 09:00 50.003716 -97.274109 247 4690ft 158kts
04-Jul-17 09:01 49.989196 -97.337715 248 5469ft 155kts
04-Jul-17 09:02 49.975136 -97.400545 248 6249ft 153kts
04-Jul-17 09:03 49.961315 -97.462350 248 7028ft 150kts
04-Jul-17 09:04 49.947752 -97.522896 249 7805ft 147kts
04-Jul-17 09:05 49.934434 -97.582191 249 8579ft 144kts
04-Jul-17 09:06 49.921313 -97.640475 249 9354ft 141kts
04-Jul-17 09:07 49.908621 -97.696694 249 10128ft 138kts
04-Jul-17 09:08 49.896224 -97.751454 249 10906ft 135kts
04-Jul-17 09:09 49.883928 -97.805626 250 11702ft 131kts
04-Jul-17 09:10 49.871947 -97.858290 250 12496ft 128kts
04-Jul-17 09:11 49.860309 -97.909318 250 13285ft 124kts
04-Jul-17 09:12 49.848975 -97.958883 251 14073ft 120kts
04-Jul-17 09:13 49.838045 -98.006574 251 14855ft 116kts
04-Jul-17 09:14 49.827397 -98.052935 252 15640ft 113kts
04-Jul-17 09:15 49.817099 -98.097668 253 16416ft 108kts
04-Jul-17 09:16 49.807063 -98.141287 253 16990ft 119kts
04-Jul-17 09:17 49.796788 -98.185978 252 16985ft 142kts
04-Jul-17 09:18 49.782897 -98.245847 252 16974ft 151kts
04-Jul-17 09:19 49.766195 -98.317664 252 16971ft 153kts
04-Jul-17 09:20 49.751747 -98.379635 252 16970ft 153kts
04-Jul-17 09:21 49.737300 -98.441447 252 16970ft 153kts
04-Jul-17 09:22 49.725237 -98.492932 252 16970ft 153kts
04-Jul-17 09:23 49.710725 -98.554704 252 16969ft 153kts
04-Jul-17 09:24 49.696289 -98.615975 252 16969ft 152kts
04-Jul-17 09:25 49.682114 -98.675936 252 16973ft 153kts
04-Jul-17 09:26 49.665025 -98.748081 252 16973ft 153kts
04-Jul-17 09:27 49.652756 -98.799710 252 16972ft 153kts
04-Jul-17 09:28 49.638033 -98.861497 252 16972ft 153kts
04-Jul-17 09:29 49.623252 -98.923352 252 16972ft 153kts
04-Jul-17 09:30 49.608482 -98.984988 252 16972ft 153kts
04-Jul-17 09:31 49.593711 -99.046452 252 16971ft 153kts
04-Jul-17 09:32 49.578858 -99.108080 252 16971ft 153kts
04-Jul-17 09:33 49.564039 -99.169404 252 16971ft 153kts
04-Jul-17 09:34 49.549183 -99.230704 252 16971ft 153kts
04-Jul-17 09:35 49.534278 -99.292038 252 16970ft 152kts
04-Jul-17 09:36 49.519355 -99.353276 252 16970ft 152kts
04-Jul-17 09:37 49.504460 -99.414238 252 16947ft 154kts
04-Jul-17 09:38 49.489290 -99.476145 252 16888ft 154kts
04-Jul-17 09:39 49.474220 -99.537461 252 16888ft 153kts
04-Jul-17 09:40 49.459211 -99.598373 252 16888ft 152kts
04-Jul-17 09:41 49.444425 -99.658193 251 16890ft 152kts
04-Jul-17 09:42 49.429317 -99.719191 251 16892ft 153kts
04-Jul-17 09:43 49.414202 -99.780044 251 16891ft 153kts
04-Jul-17 09:44 49.398943 -99.841298 251 16891ft 153kts
04-Jul-17 09:45 49.383708 -99.902287 251 16891ft 153kts
04-Jul-17 09:46 49.368429 -99.963308 251 16891ft 153kts
04-Jul-17 09:47 49.353135 -100.024190 251 16890ft 153kts
04-Jul-17 09:48 49.337850 -100.084880 251 16890ft 152kts
04-Jul-17 09:49 49.322487 -100.145715 251 16890ft 152kts
04-Jul-17 09:50 49.307193 -100.206123 251 16889ft 152kts
04-Jul-17 09:51 49.291771 -100.266871 251 16889ft 152kts
04-Jul-17 09:52 49.276384 -100.327315 251 16889ft 152kts
04-Jul-17 09:53 49.261034 -100.387455 251 16889ft 152kts
04-Jul-17 09:54 49.245607 -100.447738 251 16888ft 152kts
04-Jul-17 09:55 49.230108 -100.508141 251 16888ft 152kts
04-Jul-17 09:56 49.214700 -100.568031 251 16888ft 152kts
04-Jul-17 09:57 49.199219 -100.628042 251 16888ft 152kts
04-Jul-17 09:58 49.184108 -100.686435 250 16919ft 151kts
04-Jul-17 09:59 49.168513 -100.746604 250 16919ft 152kts
04-Jul-17 10:00 49.152833 -100.806918 250 16918ft 152kts
04-Jul-17 10:01 49.137143 -100.867107 250 16918ft 152kts
04-Jul-17 10:02 49.121439 -100.927193 250 16918ft 152kts
04-Jul-17 10:03 49.105815 -100.986819 250 16917ft 152kts
04-Jul-17 10:04 49.090062 -101.046789 250 16891ft 153kts
04-Jul-17 10:05 49.074235 -101.106864 250 16890ft 152kts
04-Jul-17 10:06 49.058426 -101.166726 250 16889ft 152kts
04-Jul-17 10:07 49.042636 -101.226363 250 16889ft 152kts
04-Jul-17 10:08 49.026835 -101.285889 250 16889ft 151kts
04-Jul-17 10:09 49.011104 -101.344990 250 16913ft 150kts
04-Jul-17 10:10 48.995321 -101.404152 250 16916ft 151kts
04-Jul-17 10:11 48.979456 -101.463463 250 16915ft 151kts
04-Jul-17 10:12 48.963557 -101.522747 250 16915ft 151kts
04-Jul-17 10:13 48.947694 -101.581744 250 16915ft 151kts
04-Jul-17 10:14 48.931723 -101.640995 250 16914ft 151kts
04-Jul-17 10:15 48.915996 -101.699173 250 16919ft 151kts
04-Jul-17 10:16 48.899982 -101.758297 250 16918ft 152kts
04-Jul-17 10:17 48.884218 -101.816421 250 16918ft 152kts
04-Jul-17 10:18 48.867940 -101.876161 249 16918ft 153kts
04-Jul-17 10:19 48.851697 -101.935645 249 16918ft 153kts
04-Jul-17 10:20 48.835403 -101.995182 249 16918ft 152kts
04-Jul-17 10:21 48.819238 -102.054092 250 16970ft 151kts
04-Jul-17 10:22 48.803012 -102.113107 250 16972ft 152kts
04-Jul-17 10:23 48.786760 -102.172039 250 16997ft 151kts
04-Jul-17 10:24 48.770447 -102.231064 250 16998ft 152kts
04-Jul-17 10:25 48.754054 -102.290222 250 16997ft 152kts
04-Jul-17 10:26 48.737712 -102.348289 253 16995ft 147kts
04-Jul-17 10:27 48.722109 -102.404895 253 16995ft 144kts
04-Jul-17 10:28 48.706623 -102.460529 253 16995ft 143kts
04-Jul-17 10:29 48.691444 -102.516622 246 16997ft 145kts
04-Jul-17 10:30 48.675218 -102.573139 246 16997ft 147kts
04-Jul-17 10:31 48.659206 -102.629754 246 16996ft 147kts
04-Jul-17 10:32 48.643350 -102.685923 246 17001ft 148kts
04-Jul-17 10:33 48.627185 -102.743161 246 17000ft 148kts
04-Jul-17 10:34 48.611044 -102.800174 246 17000ft 148kts
04-Jul-17 10:35 48.594889 -102.857117 246 16997ft 147kts
04-Jul-17 10:36 48.578668 -102.914168 246 16999ft 148kts
04-Jul-17 10:37 48.562354 -102.971347 246 16999ft 148kts
04-Jul-17 10:38 48.546042 -103.028409 246 16999ft 148kts
04-Jul-17 10:39 48.529758 -103.085245 246 16998ft 148kts
04-Jul-17 10:40 48.513373 -103.142300 246 16998ft 148kts
04-Jul-17 10:41 48.496992 -103.199208 246 16998ft 148kts
04-Jul-17 10:42 48.480659 -103.255809 246 16995ft 147kts
04-Jul-17 10:43 48.464330 -103.312304 246 16997ft 147kts
04-Jul-17 10:44 48.447898 -103.368965 246 16997ft 147kts
04-Jul-17 10:45 48.431500 -103.425398 246 16996ft 147kts
04-Jul-17 10:46 48.415014 -103.482000 246 16996ft 147kts
04-Jul-17 10:47 48.398584 -103.538283 246 16993ft 147kts
04-Jul-17 10:48 48.382027 -103.594869 246 16968ft 147kts
04-Jul-17 10:49 48.365601 -103.650912 246 16966ft 146kts
04-Jul-17 10:50 48.349257 -103.706493 245 16973ft 147kts
04-Jul-17 10:51 48.332575 -103.763096 245 16972ft 148kts
04-Jul-17 10:52 48.315905 -103.819544 245 16972ft 148kts
04-Jul-17 10:53 48.299164 -103.876101 245 16971ft 148kts
04-Jul-17 10:54 48.282443 -103.932461 245 16971ft 148kts
04-Jul-17 10:55 48.265686 -103.988815 245 16971ft 148kts
04-Jul-17 10:56 48.248833 -104.044839 245 16972ft 146kts
04-Jul-17 10:57 48.232206 -104.101074 245 16970ft 147kts
04-Jul-17 10:58 48.215425 -104.157079 245 16970ft 147kts
04-Jul-17 10:59 48.198587 -104.213180 245 16970ft 147kts
04-Jul-17 11:00 48.181742 -104.269185 245 16969ft 147kts
04-Jul-17 11:01 48.164845 -104.325236 245 16969ft 147kts
04-Jul-17 11:02 48.148016 -104.380937 245 16969ft 147kts
04-Jul-17 11:03 48.131115 -104.436749 245 16968ft 147kts
04-Jul-17 11:04 48.114263 -104.492361 245 16967ft 146kts
04-Jul-17 11:05 48.097358 -104.547870 245 16968ft 147kts
04-Jul-17 11:06 48.080435 -104.603362 245 16967ft 147kts
04-Jul-17 11:07 48.063733 -104.657998 245 16971ft 147kts
04-Jul-17 11:08 48.046718 -104.713569 245 16972ft 147kts
04-Jul-17 11:09 48.029599 -104.769354 245 16971ft 148kts
04-Jul-17 11:10 48.012516 -104.824890 245 16994ft 147kts
04-Jul-17 11:11 47.995494 -104.880115 245 16979ft 147kts
04-Jul-17 11:12 47.978309 -104.935765 245 16970ft 148kts
04-Jul-17 11:13 47.961083 -104.991367 245 16970ft 147kts
04-Jul-17 11:14 47.943931 -105.046628 245 16996ft 146kts
04-Jul-17 11:15 47.926777 -105.101782 245 16996ft 147kts
04-Jul-17 11:16 47.909506 -105.157189 245 16996ft 147kts
04-Jul-17 11:17 47.892477 -105.211698 245 16999ft 147kts
04-Jul-17 11:18 47.875051 -105.266914 245 16998ft 147kts
04-Jul-17 11:19 47.857814 -105.322331 245 16998ft 147kts
04-Jul-17 11:20 47.840378 -105.377743 245 16998ft 148kts
04-Jul-17 11:21 47.822907 -105.433168 245 16997ft 148kts
04-Jul-17 11:22 47.805427 -105.488508 245 16997ft 147kts
04-Jul-17 11:23 47.787975 -105.543642 245 16997ft 147kts
04-Jul-17 11:24 47.770468 -105.598828 245 16997ft 147kts
04-Jul-17 11:25 47.753168 -105.653154 245 16995ft 146kts
04-Jul-17 11:26 47.735682 -105.708157 244 17001ft 148kts
04-Jul-17 11:27 47.718023 -105.763439 244 17000ft 148kts
04-Jul-17 11:28 47.700283 -105.818868 244 17000ft 148kts
04-Jul-17 11:29 47.682561 -105.874127 244 17000ft 148kts
04-Jul-17 11:30 47.664785 -105.929433 244 16999ft 148kts
04-Jul-17 11:31 47.646978 -105.984717 244 16999ft 148kts
04-Jul-17 11:32 47.629189 -106.039825 244 16999ft 148kts
04-Jul-17 11:33 47.611481 -106.094641 244 16998ft 148kts
04-Jul-17 11:34 47.593653 -106.149573 244 16998ft 148kts
04-Jul-17 11:35 47.575870 -106.204294 244 16999ft 148kts
04-Jul-17 11:36 47.558211 -106.258528 244 17052ft 146kts
04-Jul-17 11:37 47.540423 -106.312994 244 17051ft 147kts
04-Jul-17 11:38 47.525537 -106.358405 244 17051ft 147kts
04-Jul-17 11:39 47.503847 -106.424607 244 16485ft 166kts
04-Jul-17 11:40 47.482714 -106.488540 245 15377ft 182kts
04-Jul-17 11:41 47.460096 -106.557655 244 13988ft 192kts
04-Jul-17 11:42 47.436561 -106.628910 244 12581ft 195kts
04-Jul-17 11:43 47.417994 -106.684981 243 11434ft 160kts
04-Jul-17 11:44 47.399388 -106.736575 229 9051ft 140kts
04-Jul-17 11:45 47.374097 -106.779193 230 6648ft 144kts
04-Jul-17 11:46 47.346924 -106.822271 229 4264ft 145kts
04-Jul-17 11:47 47.330055 -106.865039 270 3204ft 105kts
04-Jul-17 11:48 47.325182 -106.907037 250 3150ft 91kts
04-Jul-17 11:49 47.324626 -106.939881 295 2774ft 82kts
04-Jul-17 11:50 47.329799 -106.956313 111 2664ft 19kts
04-Jul-17 11:51 47.326412 -106.947562 199 2664ft 17kts

Navigation Log

Ident Type
Flight plan parsing failed, navigation log unavailable